Time;durP1;ratioP1;P1;durP2;ratioP2;P2;SDS_P1;SDS_P2;PMS_P1;PMS_P2;Temp;Humidity;BMP_temperature;BMP_pressure;BME280_temperature;BME280_humidity;BME280_pressure;Samples;Min_cycle;Max_cycle;Signal;HPM_P1;HPM_P2
2022/05/16 00:00:16;;;;;;;6.18;2.88;;;;;;;14.91;100.00;101562.13;5070392;28;20051;-36
2022/05/16 00:02:44;;;;;;;7.72;2.80;;;;;;;14.88;100.00;101556.28;5071056;28;20040;-26
2022/05/16 00:05:12;;;;;;;7.55;3.05;;;;;;;14.88;100.00;101553.47;5070109;28;20378;-28
2022/05/16 00:07:41;;;;;;;8.63;3.00;;;;;;;14.88;100.00;101559.09;5071117;28;20052;-30
2022/05/16 00:10:09;;;;;;;10.07;2.97;;;;;;;14.87;100.00;101558.25;5071132;28;20063;-28
2022/05/16 00:12:38;;;;;;;8.63;3.28;;;;;;;14.87;100.00;101569.50;5070084;28;20053;-32
2022/05/16 00:15:09;;;;;;;6.82;2.60;;;;;;;14.89;100.00;101577.63;5071002;28;20037;-35
2022/05/16 00:17:38;;;;;;;11.32;3.53;;;;;;;14.89;100.00;101577.63;5070910;28;20052;-32
2022/05/16 00:20:07;;;;;;;9.57;3.00;;;;;;;14.89;100.00;101566.38;5069999;28;20041;-35
2022/05/16 00:22:35;;;;;;;9.48;3.13;;;;;;;14.89;100.00;101560.75;5059793;28;20044;-32
2022/05/16 00:25:06;;;;;;;10.30;3.40;;;;;;;14.89;100.00;101557.94;5070783;28;20055;-32
2022/05/16 00:27:34;;;;;;;7.53;2.75;;;;;;;14.88;100.00;101550.66;5070530;28;20052;-31
2022/05/16 00:30:02;;;;;;;11.10;3.13;;;;;;;14.86;100.00;101541.69;5067347;28;20051;-30
2022/05/16 00:32:30;;;;;;;6.82;2.85;;;;;;;14.86;100.00;101536.91;5067204;28;20055;-27
2022/05/16 00:34:59;;;;;;;7.88;2.95;;;;;;;14.85;100.00;101537.22;5070444;28;20398;-34
2022/05/16 00:37:27;;;;;;;7.70;2.90;;;;;;;14.83;100.00;101534.72;5070496;28;20052;-32
2022/05/16 00:39:54;;;;;;;10.43;3.05;;;;;;;14.83;100.00;101537.53;5071065;28;20063;-32
2022/05/16 00:42:22;;;;;;;7.72;2.88;;;;;;;14.82;100.00;101535.88;5069892;28;20048;-33
2022/05/16 00:44:50;;;;;;;8.02;2.95;;;;;;;14.79;100.00;101534.50;5070400;28;20048;-33
2022/05/16 00:47:18;;;;;;;7.60;2.83;;;;;;;14.77;100.00;101533.19;5070103;28;20136;-36
2022/05/16 00:49:48;;;;;;;7.80;2.92;;;;;;;14.75;100.00;101513.00;5070432;28;20045;-31
2022/05/16 00:52:21;;;;;;;7.93;3.10;;;;;;;14.74;100.00;101514.97;5070790;28;20124;-35
2022/05/16 00:54:54;;;;;;;6.75;2.85;;;;;;;14.72;100.00;101507.97;5069888;28;20102;-33
2022/05/16 00:57:25;;;;;;;8.30;3.03;;;;;;;14.70;100.00;101511.09;5070503;28;20088;-35
2022/05/16 00:59:59;;;;;;;8.30;2.92;;;;;;;14.68;100.00;101510.59;5070963;28;20044;-31
2022/05/16 01:05:14;;;;;;;10.77;3.20;;;;;;;14.63;100.00;101501.41;5070560;28;20063;-29
2022/05/16 01:07:45;;;;;;;9.20;3.22;;;;;;;14.61;100.00;101500.88;5070339;28;20057;-32
2022/05/16 01:10:15;;;;;;;10.07;3.42;;;;;;;14.56;100.00;101490.59;5069930;28;20045;-30
2022/05/16 01:12:45;;;;;;;9.50;3.13;;;;;;;14.56;100.00;101487.81;5070701;28;20053;-29
2022/05/16 01:15:15;;;;;;;11.45;3.85;;;;;;;14.53;100.00;101494.03;5069789;28;20409;-30
2022/05/16 01:17:43;;;;;;;7.18;2.92;;;;;;;14.52;100.00;101494.34;5070467;28;20052;-30
2022/05/16 01:20:12;;;;;;;9.82;3.13;;;;;;;14.50;100.00;101491.84;5070033;28;20036;-33
2022/05/16 01:22:43;;;;;;;7.20;2.67;;;;;;;14.48;100.00;101486.53;5069358;28;20045;-32
2022/05/16 01:25:15;;;;;;;10.25;2.70;;;;;;;14.46;100.00;101476.75;5073384;28;20043;-29
2022/05/16 01:27:47;;;;;;;10.30;3.30;;;;;;;14.42;100.00;101472.88;5074047;28;20417;-30
2022/05/16 01:30:17;;;;;;;4.40;2.50;;;;;;;14.41;100.00;101471.22;5073476;28;20052;-29
2022/05/16 01:32:45;;;;;;;8.10;2.97;;;;;;;14.39;100.00;101474.31;5073689;28;20067;-28
2022/05/16 01:35:13;;;;;;;7.60;3.40;;;;;;;14.38;100.00;101475.47;5073583;28;20486;-30
2022/05/16 01:40:28;;;;;;;5.65;2.83;;;;;;;14.33;100.00;101460.69;5073830;28;20402;-31
2022/05/16 01:42:56;;;;;;;8.30;3.17;;;;;;;14.32;100.00;101462.66;5073560;28;20502;-33
2022/05/16 01:45:24;;;;;;;7.32;3.10;;;;;;;14.31;100.00;101460.16;5072610;28;20094;-30
2022/05/16 01:47:51;;;;;;;9.52;3.38;;;;;;;14.28;100.00;101455.16;5073392;28;20050;-34
2022/05/16 01:50:21;;;;;;;9.48;3.83;;;;;;;14.25;100.00;101448.19;5073596;28;20068;-32
2022/05/16 01:52:50;;;;;;;7.75;3.42;;;;;;;14.25;100.00;101450.16;5070087;28;20059;-29
2022/05/16 01:55:18;;;;;;;8.05;3.35;;;;;;;14.23;100.00;101442.06;5073588;28;20049;-28
2022/05/16 01:57:47;;;;;;;6.72;3.15;;;;;;;14.21;100.00;101440.69;5072272;28;20040;-33
2022/05/16 02:00:17;;;;;;;8.00;3.10;;;;;;;14.19;100.00;101435.38;5073545;28;20044;-33
2022/05/16 02:02:45;;;;;;;10.65;3.85;;;;;;;14.18;100.00;101433.75;5073229;28;20385;-35
2022/05/16 02:05:16;;;;;;;9.27;3.60;;;;;;;14.18;100.00;101435.72;5072510;28;20053;-33
2022/05/16 02:07:45;;;;;;;;;;;;;;;14.11;100.00;101434.16;5073749;28;20037;-33
2022/05/16 02:10:16;;;;;;;10.70;3.67;;;;;;;14.08;100.00;101429.16;5072797;28;20015;-29
2022/05/16 02:12:45;;;;;;;7.43;3.00;;;;;;;14.10;100.00;101424.06;5072689;28;20056;-31
2022/05/16 02:15:15;;;;;;;8.80;3.70;;;;;;;14.10;100.00;101426.88;5072679;28;20509;-31
2022/05/16 02:17:43;;;;;;;9.77;3.00;;;;;;;14.11;100.00;101416.47;5067418;28;20417;-33
2022/05/16 02:20:12;;;;;;;9.75;3.13;;;;;;;14.10;100.00;101407.22;5071969;28;20057;-29
2022/05/16 02:25:27;;;;;;;5.45;2.40;;;;;;;14.07;100.00;101407.84;5073028;28;20055;-32
2022/05/16 02:27:55;;;;;;;6.07;2.85;;;;;;;14.07;100.00;101404.19;5072198;28;20051;-36
2022/05/16 02:30:25;;;;;;;5.07;2.50;;;;;;;14.06;100.00;101408.97;5073150;28;20560;-31
2022/05/16 02:32:52;;;;;;;8.45;3.15;;;;;;;14.05;100.00;101401.69;5071785;28;20436;-34
2022/05/16 02:35:20;;;;;;;7.68;3.50;;;;;;;14.04;100.00;101396.38;5072726;28;20048;-31
2022/05/16 02:37:49;;;;;;;8.70;3.28;;;;;;;14.03;100.00;101387.13;5070686;28;20048;-33
2022/05/16 02:40:17;;;;;;;9.75;3.50;;;;;;;14.02;100.00;101384.63;5070024;28;20070;-27
2022/05/16 02:42:46;;;;;;;9.70;3.55;;;;;;;14.01;100.00;101394.19;5070367;28;20493;-30
2022/05/16 02:45:14;;;;;;;7.38;2.78;;;;;;;13.99;100.00;101393.66;5070749;28;20037;-27
2022/05/16 02:47:42;;;;;;;9.02;3.45;;;;;;;13.98;100.00;101386.44;5070314;28;20147;-31
2022/05/16 02:50:10;;;;;;;7.25;3.00;;;;;;;13.96;100.00;101389.53;5060399;28;20055;-29
2022/05/16 02:52:38;;;;;;;5.03;2.80;;;;;;;13.97;100.00;101381.94;5071385;28;20040;-31
2022/05/16 02:55:07;;;;;;;6.78;2.60;;;;;;;13.95;100.00;101385.06;5071367;28;20040;-31
2022/05/16 02:57:35;;;;;;;7.07;3.03;;;;;;;13.94;100.00;101376.94;5072506;28;20045;-35
2022/05/16 03:00:06;;;;;;;6.95;3.10;;;;;;;13.92;100.00;101368.84;5068681;28;20063;-30
2022/05/16 03:02:34;;;;;;;5.50;2.88;;;;;;;13.89;100.00;101375.06;5068349;28;20044;-33
2022/05/16 03:05:03;;;;;;;6.90;3.03;;;;;;;13.87;100.00;101368.09;5071492;28;20051;-27
2022/05/16 03:07:31;;;;;;;5.65;2.55;;;;;;;13.86;100.00;101364.47;5071121;28;20429;-32
2022/05/16 03:09:58;;;;;;;5.80;2.65;;;;;;;13.85;100.00;101361.97;5071176;28;20402;-29
2022/05/16 03:12:26;;;;;;;6.55;2.90;;;;;;;13.84;100.00;101369.53;5071839;28;20058;-30
2022/05/16 03:14:54;;;;;;;7.00;3.13;;;;;;;13.81;100.00;101358.94;5070946;28;20074;-32
2022/05/16 03:17:24;;;;;;;8.20;3.13;;;;;;;13.82;100.00;101356.97;5068386;28;20052;-30
2022/05/16 03:19:52;;;;;;;6.75;2.42;;;;;;;13.80;100.00;101354.47;5070013;28;20045;-33
2022/05/16 03:22:19;;;;;;;5.60;2.45;;;;;;;13.79;100.00;101352.81;5068937;28;20077;-36
2022/05/16 03:24:47;;;;;;;7.40;3.03;;;;;;;13.79;100.00;101350.81;5070713;28;20517;-28
2022/05/16 03:27:15;;;;;;;6.50;3.10;;;;;;;13.77;100.00;101350.34;5070375;28;20176;-28
2022/05/16 03:29:43;;;;;;;9.27;3.42;;;;;;;13.77;100.00;101349.50;5069963;28;20048;-31
2022/05/16 03:32:10;;;;;;;4.40;2.28;;;;;;;13.76;100.00;101356.25;5070696;28;20047;-32
2022/05/16 03:34:39;;;;;;;5.63;2.20;;;;;;;13.75;100.00;101354.59;5071152;28;20123;-34
2022/05/16 03:37:07;;;;;;;9.52;3.75;;;;;;;13.73;100.00;101360.50;5070473;28;20040;-32
2022/05/16 03:42:20;;;;;;;4.80;2.63;;;;;;;13.71;100.00;101373.16;5071258;28;20397;-37
2022/05/16 03:44:48;;;;;;;10.18;3.50;;;;;;;13.70;100.00;101352.69;5070209;28;20401;-26
2022/05/16 03:47:16;;;;;;;5.63;2.55;;;;;;;13.72;100.00;101352.38;5070869;28;20037;-29
2022/05/16 03:49:45;;;;;;;7.72;2.95;;;;;;;13.71;100.00;101351.56;5071124;28;20052;-29
2022/05/16 03:52:12;;;;;;;7.65;2.92;;;;;;;13.70;100.00;101354.66;5059134;28;20520;-29
2022/05/16 03:54:42;;;;;;;8.15;3.33;;;;;;;13.70;100.00;101355.50;5060542;28;20032;-27
2022/05/16 03:57:11;;;;;;;7.80;3.33;;;;;;;13.68;100.00;101343.75;5070372;28;20074;-29
2022/05/16 03:59:38;;;;;;;7.35;3.15;;;;;;;13.68;100.00;101334.50;5069780;28;20052;-28
2022/05/16 04:02:08;;;;;;;5.80;3.20;;;;;;;13.68;100.00;101335.34;5067475;28;20049;-30
2022/05/16 04:04:37;;;;;;;6.45;2.67;;;;;;;13.69;100.00;101337.00;5067099;28;20045;-26
2022/05/16 04:07:06;;;;;;;8.65;3.55;;;;;;;13.70;100.00;101337.84;5071117;28;20048;-28
2022/05/16 04:09:33;;;;;;;5.32;2.45;;;;;;;13.69;100.00;101331.41;5071062;28;20055;-31
2022/05/16 04:12:01;;;;;;;8.25;3.50;;;;;;;13.70;100.00;101329.44;5070386;28;20051;-28
2022/05/16 04:14:29;;;;;;;6.38;3.05;;;;;;;13.71;100.00;101329.13;5070857;28;20110;-30
2022/05/16 04:16:58;;;;;;;6.47;3.20;;;;;;;13.72;100.00;101327.16;5070774;28;20056;-28
2022/05/16 04:19:26;;;;;;;6.03;2.80;;;;;;;13.71;100.00;101322.69;5066679;28;20452;-34
2022/05/16 04:21:54;;;;;;;7.50;3.55;;;;;;;13.71;100.00;101315.09;5065296;28;20048;-31
2022/05/16 04:24:23;;;;;;;6.00;2.88;;;;;;;13.72;100.00;101315.94;5070862;28;20053;-27
2022/05/16 04:26:50;;;;;;;8.20;3.47;;;;;;;13.70;100.00;101316.22;5070104;28;20049;-31
2022/05/16 04:29:18;;;;;;;10.80;3.65;;;;;;;13.71;100.00;101312.28;5070863;28;20036;-27
2022/05/16 04:31:46;;;;;;;8.40;3.17;;;;;;;13.71;100.00;101303.03;5070655;28;20044;-29
2022/05/16 04:34:14;;;;;;;9.95;3.88;;;;;;;13.71;100.00;101300.25;5068394;28;20082;-30
2022/05/16 04:36:42;;;;;;;7.15;3.47;;;;;;;13.72;100.00;101305.53;5071090;28;20051;-28
2022/05/16 04:39:09;;;;;;;13.02;4.80;;;;;;;13.73;100.00;101304.41;5070238;28;20051;-34
2022/05/16 04:44:24;;;;;;;6.72;3.53;;;;;;;13.75;100.00;101299.31;5070471;28;20506;-28
2022/05/16 04:46:52;;;;;;;8.52;4.03;;;;;;;13.79;100.00;101291.09;5069816;28;20051;-34
2022/05/16 04:49:20;;;;;;;8.68;3.75;;;;;;;13.83;100.00;101286.53;5070734;28;20056;-27
2022/05/16 04:51:48;;;;;;;9.10;4.05;;;;;;;13.88;100.00;101288.41;5070644;28;20123;-32
2022/05/16 04:54:15;;;;;;;7.90;3.60;;;;;;;13.94;100.00;101292.78;5069883;28;20055;-33
2022/05/16 04:56:46;;;;;;;9.80;4.22;;;;;;;14.01;100.00;101302.44;5059442;28;20053;-31
2022/05/16 04:59:15;;;;;;;8.30;3.72;;;;;;;14.09;100.00;101296.09;5072274;28;20565;-29
2022/05/16 05:01:43;;;;;;;7.80;3.17;;;;;;;14.18;100.00;101298.19;5073677;28;20051;-25
2022/05/16 05:04:11;;;;;;;10.32;4.28;;;;;;;14.28;100.00;101303.56;5070754;28;20040;-33
2022/05/16 05:06:39;;;;;;;9.05;4.32;;;;;;;14.39;100.00;101302.19;5071092;28;20044;-28
2022/05/16 05:09:07;;;;;;;8.02;3.78;;;;;;;14.50;100.00;101312.09;5073379;28;20045;-34
2022/05/16 05:14:33;;;;;;;7.47;3.40;;;;;;;14.72;100.00;101329.03;5073649;28;20044;-29
2022/05/16 05:17:02;;;;;;;9.23;3.80;;;;;;;14.82;100.00;101319.50;5074105;28;20529;-32
2022/05/16 05:19:30;;;;;;;10.77;3.83;;;;;;;14.91;100.00;101326.06;5073709;28;20444;-32
2022/05/16 05:21:58;;;;;;;7.40;3.47;;;;;;;14.98;100.00;101332.09;5071709;28;20067;-31
2022/05/16 05:24:26;;;;;;;9.55;3.72;;;;;;;15.04;100.00;101329.97;5073986;28;20053;-36
2022/05/16 05:26:54;;;;;;;8.60;3.47;;;;;;;15.09;100.00;101339.09;5073831;28;20498;-29
2022/05/16 05:29:24;;;;;;;11.23;3.95;;;;;;;15.11;100.00;101330.34;5072745;28;20040;-31
2022/05/16 05:31:51;;;;;;;9.20;3.50;;;;;;;15.16;100.00;101331.06;5073683;28;20048;-35
2022/05/16 05:34:20;;;;;;;10.23;3.90;;;;;;;15.20;100.00;101336.03;5074062;28;20098;-29
2022/05/16 05:36:48;;;;;;;10.05;3.80;;;;;;;15.23;100.00;101326.97;5073105;28;20067;-29
2022/05/16 05:39:17;;;;;;;6.22;3.08;;;;;;;15.27;100.00;101328.81;5073785;28;20486;-36
2022/05/16 05:41:45;;;;;;;11.50;3.90;;;;;;;15.30;100.00;101319.75;5073606;28;20409;-28
2022/05/16 05:44:12;;;;;;;9.10;3.53;;;;;;;15.35;100.00;101314.00;5072798;28;20044;-32
2022/05/16 05:46:42;;;;;;;6.72;3.00;;;;;;;15.42;100.00;101325.63;5073476;28;20048;-32
2022/05/16 05:49:11;;;;;;;7.97;3.55;;;;;;;15.47;100.00;101314.25;5073100;28;20045;-30
2022/05/16 05:51:39;;;;;;;9.05;3.70;;;;;;;15.56;100.00;101310.69;5072692;28;20044;-31
2022/05/16 05:54:08;;;;;;;8.95;3.60;;;;;;;15.60;100.00;101329.41;5073539;28;20044;-28
2022/05/16 05:56:37;;;;;;;10.00;3.58;;;;;;;15.67;100.00;101306.44;5072490;28;20041;-33
2022/05/16 05:59:05;;;;;;;8.98;3.72;;;;;;;15.74;100.00;101313.28;5073644;28;20367;-31
2022/05/16 06:01:32;;;;;;;11.73;4.00;;;;;;;15.84;100.00;101323.41;5062053;28;20052;-29
2022/05/16 06:04:02;;;;;;;9.80;3.10;;;;;;;15.93;100.00;101321.50;5072761;28;20138;-28
2022/05/16 06:06:29;;;;;;;9.02;3.53;;;;;;;16.03;100.00;101321.19;5070938;28;20601;-33
2022/05/16 06:08:58;;;;;;;8.23;3.47;;;;;;;16.14;100.00;101322.56;5072049;28;20050;-30
2022/05/16 06:11:28;;;;;;;9.43;3.72;;;;;;;16.25;100.00;101313.81;5067595;28;20056;-33
2022/05/16 06:13:58;;;;;;;7.10;3.08;;;;;;;16.36;100.00;101313.22;5069116;28;20135;-29
2022/05/16 06:16:26;;;;;;;9.45;3.75;;;;;;;16.49;100.00;101308.59;5071876;28;20047;-31
2022/05/16 06:18:53;;;;;;;7.80;3.40;;;;;;;16.64;100.00;101318.59;5071190;28;20048;-33
2022/05/16 06:21:23;;;;;;;7.28;3.45;;;;;;;16.80;100.00;101317.78;5071911;28;20056;-32
2022/05/16 06:23:50;;;;;;;7.10;3.00;;;;;;;17.01;100.00;101317.13;5069605;28;20048;-32
2022/05/16 06:26:18;;;;;;;11.40;3.85;;;;;;;17.16;100.00;101320.28;5070881;28;20079;-34
2022/05/16 06:28:46;;;;;;;9.05;3.42;;;;;;;17.36;100.00;101318.78;5068397;28;20055;-31
2022/05/16 06:31:13;;;;;;;8.85;3.45;;;;;;;17.61;100.00;101319.03;5071572;28;20052;-32
2022/05/16 06:33:46;;;;;;;7.63;3.15;;;;;;;17.84;100.00;101310.03;5070748;28;20575;-29
2022/05/16 06:36:15;;;;;;;7.20;3.30;;;;;;;18.08;98.04;101311.47;5071614;28;20480;-31
2022/05/16 06:38:44;;;;;;;7.43;3.17;;;;;;;18.38;94.54;101315.16;5071228;28;20051;-35
2022/05/16 06:41:12;;;;;;;9.45;3.47;;;;;;;18.68;91.54;101316.81;5071188;28;20051;-36
2022/05/16 06:43:39;;;;;;;8.15;3.75;;;;;;;18.85;88.45;101325.16;5071067;28;20053;-33
2022/05/16 06:46:07;;;;;;;8.13;3.15;;;;;;;18.92;85.71;101325.44;5070613;28;20045;-35
2022/05/16 06:48:35;;;;;;;6.20;2.55;;;;;;;19.18;87.08;101338.56;5071452;28;20057;-31
2022/05/16 06:51:03;;;;;;;7.22;3.25;;;;;;;19.55;85.29;101339.59;5071296;28;20048;-31
2022/05/16 06:53:31;;;;;;;8.82;3.40;;;;;;;19.93;81.92;101342.16;5070101;28;20063;-33
2022/05/16 06:56:01;;;;;;;6.20;2.80;;;;;;;20.36;82.12;101335.97;5070760;28;20048;-31
2022/05/16 06:58:29;;;;;;;9.48;3.08;;;;;;;20.91;78.70;101326.84;5070931;28;20504;-31
2022/05/16 07:00:57;;;;;;;8.30;3.17;;;;;;;21.26;75.86;101332.78;5069084;28;20597;-29
2022/05/16 07:03:25;;;;;;;7.38;3.00;;;;;;;21.52;73.67;101329.50;5070659;28;20563;-29
2022/05/16 07:05:55;;;;;;;6.32;2.58;;;;;;;21.62;72.38;101328.13;5070466;28;20044;-33
2022/05/16 07:08:23;;;;;;;11.13;3.35;;;;;;;21.59;71.84;101341.03;5069790;28;20044;-35
2022/05/16 07:10:52;;;;;;;6.63;2.70;;;;;;;21.70;71.41;101326.31;5071071;28;20061;-34
2022/05/16 07:13:24;;;;;;;7.00;2.90;;;;;;;21.72;68.56;101338.97;5071028;28;20036;-31
2022/05/16 07:15:53;;;;;;;7.45;3.08;;;;;;;21.58;70.45;101328.03;5070603;28;20139;-32
2022/05/16 07:18:22;;;;;;;10.55;3.30;;;;;;;21.46;70.52;101339.44;5071687;28;20076;-29
2022/05/16 07:20:51;;;;;;;7.80;3.00;;;;;;;21.25;70.32;101327.47;5071027;28;20044;-29
2022/05/16 07:23:19;;;;;;;7.38;3.17;;;;;;;21.21;70.71;101343.56;5069299;28;20202;-34
2022/05/16 07:28:33;;;;;;;8.57;3.28;;;;;;;21.71;66.76;101347.88;5070823;28;20057;-32
2022/05/16 07:31:01;;;;;;;9.30;3.28;;;;;;;21.97;65.53;101342.50;5071259;28;20036;-29
2022/05/16 07:33:29;;;;;;;7.40;3.03;;;;;;;22.29;64.10;101346.22;5071109;28;20449;-33
2022/05/16 07:35:57;;;;;;;7.43;3.25;;;;;;;22.56;60.68;101339.59;5070795;28;20075;-30
2022/05/16 07:38:26;;;;;;;8.80;3.20;;;;;;;22.83;59.72;101329.28;5071160;28;20044;-29
2022/05/16 07:40:54;;;;;;;9.68;3.28;;;;;;;22.88;59.38;101331.84;5071352;28;20063;-32
2022/05/16 07:43:23;;;;;;;9.43;2.88;;;;;;;22.78;59.49;101340.94;5070357;28;20044;-36
2022/05/16 07:45:53;;;;;;;7.32;3.17;;;;;;;22.71;59.09;101328.56;5070739;28;20493;-34
2022/05/16 07:48:21;;;;;;;7.85;3.28;;;;;;;22.51;60.29;101331.34;5071296;28;20428;-30
2022/05/16 07:50:50;;;;;;;8.25;3.10;;;;;;;22.56;60.83;101333.91;5070089;28;20051;-30
2022/05/16 07:53:18;;;;;;;7.65;3.33;;;;;;;22.61;60.61;101327.91;5070867;28;20395;-37
2022/05/16 07:55:47;;;;;;;9.15;2.90;;;;;;;22.57;60.63;101323.34;5071046;28;20040;-32
2022/05/16 07:58:15;;;;;;;10.43;3.40;;;;;;;22.51;60.80;101324.81;5070313;28;20048;-30
2022/05/16 08:00:43;;;;;;;6.35;2.97;;;;;;;22.46;61.05;101316.56;5071239;28;20055;-31
2022/05/16 08:03:14;;;;;;;7.70;3.30;;;;;;;22.55;61.25;101320.88;5070350;28;20079;-34
2022/05/16 08:05:43;;;;;;;8.38;3.05;;;;;;;22.53;60.28;101316.75;5060515;28;20440;-29
2022/05/16 08:10:58;;;;;;;7.45;2.72;;;;;;;22.30;61.25;101317.41;5060178;28;20041;-31
2022/05/16 08:13:27;;;;;;;8.35;2.88;;;;;;;22.22;61.34;101326.13;5071191;28;20047;-30
2022/05/16 08:15:55;;;;;;;11.07;4.22;;;;;;;22.11;61.02;101325.84;5070594;28;20055;-34
2022/05/16 08:18:25;;;;;;;6.03;2.92;;;;;;;22.22;60.98;101314.75;5069984;28;20504;-33
2022/05/16 08:20:53;;;;;;;8.57;3.30;;;;;;;22.41;60.31;101308.31;5070755;28;20040;-30
2022/05/16 08:23:25;;;;;;;9.98;3.10;;;;;;;22.50;59.33;101323.16;5070696;28;20037;-36
2022/05/16 08:25:54;;;;;;;9.13;3.55;;;;;;;22.58;59.08;101334.34;5066531;28;20127;-30
2022/05/16 08:28:22;;;;;;;7.65;3.33;;;;;;;22.49;59.02;101333.72;5067527;28;20041;-32
2022/05/16 08:30:52;;;;;;;5.18;2.85;;;;;;;22.61;59.99;101329.94;5070471;28;20508;-30
2022/05/16 08:33:20;;;;;;;6.75;3.00;;;;;;;22.77;59.34;101336.47;5072315;28;20041;-36
2022/05/16 08:41:27;;;;;;;7.45;2.90;;;;;;;22.32;58.36;101354.84;5074171;28;20131;-32
2022/05/16 08:44:07;;;;;;;6.07;3.10;;;;;;;22.25;60.56;101365.19;5075012;28;20490;-30
2022/05/16 08:46:38;;;;;;;7.13;3.17;;;;;;;22.19;61.20;101372.34;5074259;28;20044;-32
2022/05/16 08:49:17;;;;;;;6.88;2.83;;;;;;;22.27;61.50;101377.03;5072171;28;20044;-33
2022/05/16 08:51:54;;;;;;;8.13;3.53;;;;;;;22.56;61.09;101353.81;5070929;28;20482;-31
2022/05/16 08:54:31;;;;;;;6.03;2.80;;;;;;;22.83;60.45;101359.75;5073818;28;20052;-31
2022/05/16 08:57:01;;;;;;;9.32;3.42;;;;;;;23.02;59.71;101372.00;5074294;28;20410;-31
2022/05/16 08:59:33;;;;;;;9.43;3.88;;;;;;;23.09;59.38;101359.97;5073691;28;20497;-32
2022/05/16 09:02:08;;;;;;;8.13;4.07;;;;;;;23.03;59.12;101372.84;5073747;28;20470;-31
2022/05/16 09:04:48;;;;;;;8.05;3.22;;;;;;;22.96;59.49;101356.44;5071559;28;20045;-30
2022/05/16 09:07:22;;;;;;;10.70;3.75;;;;;;;23.00;59.93;101362.19;5073524;28;20044;-30
2022/05/16 09:09:57;;;;;;;10.07;3.63;;;;;;;23.08;59.79;101357.50;5071690;28;20391;-29
2022/05/16 09:12:34;;;;;;;8.32;3.47;;;;;;;23.07;59.95;101364.38;5070683;28;20056;-34
2022/05/16 09:15:15;;;;;;;6.28;3.40;;;;;;;23.11;59.56;101365.28;5073438;28;20055;-34
2022/05/16 09:17:56;;;;;;;9.90;3.60;;;;;;;23.24;60.24;101363.94;5071711;28;20417;-30
2022/05/16 09:20:34;;;;;;;9.15;3.92;;;;;;;23.54;59.30;101361.38;5074380;28;20048;-30
2022/05/16 09:23:11;;;;;;;7.70;3.42;;;;;;;23.92;58.85;101369.06;5074035;28;20099;-30
2022/05/16 09:25:49;;;;;;;7.57;3.47;;;;;;;24.28;56.54;101371.41;5073876;28;20699;-39
2022/05/16 09:28:35;;;;;;;9.32;3.92;;;;;;;24.65;56.48;101371.63;5072993;28;20398;-30
2022/05/16 09:31:12;;;;;;;7.70;3.50;;;;;;;25.38;54.58;101369.44;5074093;28;20045;-34
2022/05/16 09:33:45;;;;;;;7.53;3.60;;;;;;;25.72;52.92;101379.75;5073722;28;20040;-30
2022/05/16 09:36:14;;;;;;;6.85;3.35;;;;;;;25.85;52.77;101382.31;5072793;28;20045;-37
2022/05/16 09:38:46;;;;;;;7.45;3.83;;;;;;;25.89;51.67;101377.47;5073510;28;20080;-30
2022/05/16 09:41:23;;;;;;;7.13;3.30;;;;;;;25.78;52.22;101382.25;5073745;28;20056;-30
2022/05/16 09:43:58;;;;;;;8.55;2.95;;;;;;;26.05;53.19;101380.91;5072089;28;20045;-34
2022/05/16 09:46:32;;;;;;;10.18;3.63;;;;;;;26.42;51.59;101378.84;5073415;28;20040;-30
2022/05/16 09:49:11;;;;;;;8.07;2.80;;;;;;;26.93;50.80;101382.97;5072730;28;20114;-32
2022/05/16 09:51:45;;;;;;;4.72;2.80;;;;;;;27.47;48.84;101370.59;5073802;28;20474;-30
2022/05/16 09:54:24;;;;;;;6.55;3.20;;;;;;;28.03;44.91;101381.47;5073210;28;20040;-31
2022/05/16 09:57:12;;;;;;;5.60;2.67;;;;;;;28.33;42.27;101375.41;5062635;28;20051;-32
2022/05/16 09:59:44;;;;;;;6.43;2.63;;;;;;;28.48;42.45;101389.78;5064292;28;20098;-30
2022/05/16 10:02:24;;;;;;;7.90;3.20;;;;;;;28.65;41.30;101391.84;5073276;28;20045;-33
2022/05/16 10:04:55;;;;;;;7.20;3.33;;;;;;;28.79;41.29;101386.91;5063310;28;20048;-31
2022/05/16 10:07:29;;;;;;;6.28;2.65;;;;;;;29.04;40.78;101378.28;5073004;28;20037;-31
2022/05/16 10:09:58;;;;;;;6.63;3.30;;;;;;;29.24;40.12;101395.06;5072465;28;20406;-31
2022/05/16 10:12:29;;;;;;;6.50;3.78;;;;;;;29.08;39.48;101401.28;5073182;28;20041;-39
2022/05/16 10:14:58;;;;;;;8.20;4.40;;;;;;;28.88;40.35;101403.75;5073271;28;20052;-31
2022/05/16 10:17:31;;;;;;;8.70;3.72;;;;;;;28.97;41.08;101406.22;5061152;28;20048;-39
2022/05/16 10:20:05;;;;;;;8.05;3.75;;;;;;;29.09;40.65;101406.59;5072955;28;20044;-34
2022/05/16 10:22:33;;;;;;;8.57;4.30;;;;;;;28.89;40.37;101410.31;5072908;28;20048;-36
2022/05/16 10:25:27;;;;;;;6.68;3.72;;;;;;;28.52;41.64;101431.63;5061368;28;20547;-32
2022/05/16 10:27:58;;;;;;;9.77;5.50;;;;;;;28.18;40.91;101436.06;5072838;28;20106;-32
2022/05/16 10:30:28;;;;;;;7.80;5.40;;;;;;;28.07;41.16;101458.97;5072641;28;20046;-31
2022/05/16 10:35:48;;;;;;;9.68;6.10;;;;;;;27.42;41.65;101460.66;5057156;28;20429;-31
2022/05/16 10:38:22;;;;;;;7.30;5.43;;;;;;;27.30;42.11;101472.47;5071861;28;20052;-31
2022/05/16 10:40:57;;;;;;;9.88;6.00;;;;;;;27.16;42.50;101477.28;5061295;28;20512;-35
2022/05/16 10:43:40;;;;;;;8.55;5.63;;;;;;;27.07;42.87;101492.78;5062437;28;20494;-34
2022/05/16 10:46:14;;;;;;;10.35;5.68;;;;;;;26.84;43.44;101506.44;5061703;28;20047;-32
2022/05/16 10:48:52;;;;;;;8.15;5.55;;;;;;;26.70;44.57;101503.44;5072321;28;20490;-35
2022/05/16 10:51:28;;;;;;;8.65;5.50;;;;;;;26.80;44.01;101496.16;5072311;28;20077;-32
2022/05/16 10:54:04;;;;;;;6.40;4.80;;;;;;;26.85;44.62;101505.22;5070194;28;20045;-29
2022/05/16 10:57:07;;;;;;;7.82;5.38;;;;;;;26.87;44.25;101496.25;5070987;28;20520;-37
2022/05/16 11:00:07;;;;;;;7.95;5.22;;;;;;;26.58;45.71;101506.63;5071147;28;20040;-29
2022/05/16 11:03:09;;;;;;;7.75;5.20;;;;;;;26.23;48.40;101504.94;5038471;28;20468;-39
2022/05/16 11:05:58;;;;;;;6.93;5.03;;;;;;;26.08;49.21;101503.13;5069795;28;20060;-32
2022/05/16 11:08:36;;;;;;;7.15;5.13;;;;;;;25.78;49.76;101505.19;5072046;28;20041;-31
2022/05/16 11:11:12;;;;;;;9.15;5.78;;;;;;;25.54;51.54;101503.59;5071939;28;20048;-32
2022/05/16 11:13:47;;;;;;;6.22;4.15;;;;;;;25.55;52.29;101500.34;5071409;28;20049;-37
2022/05/16 11:16:19;;;;;;;7.10;4.85;;;;;;;25.45;52.05;101515.28;5071118;28;20056;-38
2022/05/16 11:18:52;;;;;;;6.22;4.13;;;;;;;25.72;52.60;101511.25;5067571;28;20044;-31
2022/05/16 11:21:38;;;;;;;7.57;5.22;;;;;;;25.79;51.21;101509.69;5065351;28;20055;-37
2022/05/16 11:24:16;;;;;;;8.15;4.72;;;;;;;25.56;51.31;101518.34;5070116;28;20044;-31
2022/05/16 11:26:50;;;;;;;9.25;6.03;;;;;;;24.94;53.10;101517.72;5069658;28;20048;-39
2022/05/16 11:29:25;;;;;;;9.35;5.80;;;;;;;24.36;55.33;101515.81;5069381;28;20040;-29
2022/05/16 11:32:03;;;;;;;11.18;5.65;;;;;;;24.28;56.85;101516.88;5068030;28;20486;-30
2022/05/16 11:34:45;;;;;;;9.82;5.32;;;;;;;23.94;57.68;101501.47;5069486;28;20450;-30
2022/05/16 11:37:22;;;;;;;8.55;5.30;;;;;;;23.73;58.86;101494.50;5069983;28;20048;-33
2022/05/16 11:39:54;;;;;;;7.05;4.50;;;;;;;23.68;59.11;101478.50;5067806;28;20384;-31
2022/05/16 11:42:34;;;;;;;7.75;4.25;;;;;;;23.60;59.83;101496.63;5069267;28;20130;-34
2022/05/16 11:45:15;;;;;;;7.88;4.55;;;;;;;23.28;60.28;101524.34;5068173;28;20043;-30
2022/05/16 11:47:47;;;;;;;;;;;;;;;22.75;63.20;101528.66;5068140;28;20090;-34
2022/05/16 11:50:42;;;;;;;9.43;4.33;;;;;;;22.52;63.93;101534.94;5059105;28;19920;-29
2022/05/16 11:53:34;;;;;;;8.82;5.25;;;;;;;22.45;65.05;101548.13;5070125;28;20044;-31
2022/05/16 12:01:36;;;;;;;7.82;5.55;;;;;;;22.51;67.64;101546.69;5070918;28;20036;-32
2022/05/16 12:04:13;;;;;;;9.65;4.45;;;;;;;22.65;67.74;101541.38;5070060;28;20094;-33
2022/05/16 12:06:44;;;;;;;48.47;5.82;;;;;;;23.00;66.38;101547.22;5069925;28;20500;-32
2022/05/16 12:09:20;;;;;;;7.10;4.47;;;;;;;23.18;65.21;101559.88;5070685;28;20045;-31
2022/05/16 12:11:53;;;;;;;32.50;4.43;;;;;;;22.85;66.46;101551.72;5071083;28;20045;-30